sensor_id;sensor_type;location;lat;lon;timestamp;pressure;altitude;pressure_sealevel;temperature;humidity
82413;BME280;72056;51.980;15.436;2024-01-27T00:00:31;101465.81;;;6.24;100.00
82413;BME280;72056;51.980;15.436;2024-01-27T00:03:18;101498.44;;;6.21;100.00
82413;BME280;72056;51.980;15.436;2024-01-27T00:05:46;101473.16;;;6.36;100.00
82413;BME280;72056;51.980;15.436;2024-01-27T00:08:13;101475.19;;;6.19;100.00
82413;BME280;72056;51.980;15.436;2024-01-27T00:10:40;101473.81;;;6.11;100.00
82413;BME280;72056;51.980;15.436;2024-01-27T00:13:07;101488.25;;;5.96;100.00
82413;BME280;72056;51.980;15.436;2024-01-27T00:15:34;101488.00;;;6.01;100.00
82413;BME280;72056;51.980;15.436;2024-01-27T00:18:01;101481.72;;;6.14;100.00
82413;BME280;72056;51.980;15.436;2024-01-27T00:20:28;101480.56;;;6.04;100.00
82413;BME280;72056;51.980;15.436;2024-01-27T00:22:56;101486.78;;;6.35;100.00
82413;BME280;72056;51.980;15.436;2024-01-27T00:25:23;101486.56;;;6.24;100.00
82413;BME280;72056;51.980;15.436;2024-01-27T00:27:49;101480.69;;;6.17;100.00
82413;BME280;72056;51.980;15.436;2024-01-27T00:30:16;101488.50;;;6.36;100.00
82413;BME280;72056;51.980;15.436;2024-01-27T00:32:43;101478.63;;;6.21;100.00
82413;BME280;72056;51.980;15.436;2024-01-27T00:35:10;101481.91;;;6.26;100.00
82413;BME280;72056;51.980;15.436;2024-01-27T00:37:41;101463.59;;;6.31;100.00
82413;BME280;72056;51.980;15.436;2024-01-27T00:40:10;101482.22;;;6.35;100.00
82413;BME280;72056;51.980;15.436;2024-01-27T00:42:37;101496.34;;;6.40;100.00
82413;BME280;72056;51.980;15.436;2024-01-27T00:45:04;101461.25;;;6.39;100.00
82413;BME280;72056;51.980;15.436;2024-01-27T00:47:30;101476.72;;;6.23;100.00
82413;BME280;72056;51.980;15.436;2024-01-27T00:49:57;101469.09;;;6.29;100.00
82413;BME280;72056;51.980;15.436;2024-01-27T00:52:24;101491.50;;;6.17;100.00
82413;BME280;72056;51.980;15.436;2024-01-27T00:54:51;101497.38;;;6.24;100.00
82413;BME280;72056;51.980;15.436;2024-01-27T00:57:18;101495.66;;;6.23;100.00
82413;BME280;72056;51.980;15.436;2024-01-27T00:59:45;101472.81;;;5.98;100.00
82413;BME280;72056;51.980;15.436;2024-01-27T01:02:12;101486.75;;;6.06;100.00
82413;BME280;72056;51.980;15.436;2024-01-27T01:04:40;101504.28;;;5.99;100.00
82413;BME280;72056;51.980;15.436;2024-01-27T01:07:08;101490.69;;;6.01;100.00
82413;BME280;72056;51.980;15.436;2024-01-27T01:09:34;101490.38;;;5.91;100.00
82413;BME280;72056;51.980;15.436;2024-01-27T01:12:01;101498.69;;;6.02;100.00
82413;BME280;72056;51.980;15.436;2024-01-27T01:14:28;101515.41;;;6.09;100.00
82413;BME280;72056;51.980;15.436;2024-01-27T01:16:55;101490.91;;;6.12;100.00
82413;BME280;72056;51.980;15.436;2024-01-27T01:19:22;101495.50;;;5.96;100.00
82413;BME280;72056;51.980;15.436;2024-01-27T01:21:49;101471.44;;;5.91;100.00
82413;BME280;72056;51.980;15.436;2024-01-27T01:24:17;101493.91;;;6.07;100.00
82413;BME280;72056;51.980;15.436;2024-01-27T01:26:43;101495.88;;;5.90;100.00
82413;BME280;72056;51.980;15.436;2024-01-27T01:29:11;101510.16;;;5.92;100.00
82413;BME280;72056;51.980;15.436;2024-01-27T01:31:37;101513.94;;;5.89;100.00
82413;BME280;72056;51.980;15.436;2024-01-27T01:34:04;101507.88;;;5.84;100.00
82413;BME280;72056;51.980;15.436;2024-01-27T01:36:31;101522.41;;;5.97;100.00
82413;BME280;72056;51.980;15.436;2024-01-27T01:38:58;101529.94;;;5.92;100.00
82413;BME280;72056;51.980;15.436;2024-01-27T01:41:25;101524.81;;;5.72;100.00
82413;BME280;72056;51.980;15.436;2024-01-27T01:43:52;101525.78;;;5.71;100.00
82413;BME280;72056;51.980;15.436;2024-01-27T01:46:18;101541.72;;;5.75;100.00
82413;BME280;72056;51.980;15.436;2024-01-27T01:48:44;101538.75;;;5.80;100.00
82413;BME280;72056;51.980;15.436;2024-01-27T01:51:11;101537.28;;;5.74;100.00
82413;BME280;72056;51.980;15.436;2024-01-27T01:53:39;101544.97;;;5.51;100.00
82413;BME280;72056;51.980;15.436;2024-01-27T01:56:06;101549.34;;;5.53;100.00
82413;BME280;72056;51.980;15.436;2024-01-27T01:58:34;101534.16;;;5.66;100.00
82413;BME280;72056;51.980;15.436;2024-01-27T02:01:01;101561.03;;;5.54;100.00
82413;BME280;72056;51.980;15.436;2024-01-27T02:03:29;101543.72;;;5.42;100.00
82413;BME280;72056;51.980;15.436;2024-01-27T02:05:56;101551.19;;;5.53;100.00
82413;BME280;72056;51.980;15.436;2024-01-27T02:08:22;101559.09;;;5.56;100.00
82413;BME280;72056;51.980;15.436;2024-01-27T02:10:49;101565.09;;;5.61;100.00
82413;BME280;72056;51.980;15.436;2024-01-27T02:13:21;101548.88;;;5.61;100.00
82413;BME280;72056;51.980;15.436;2024-01-27T02:15:49;101558.34;;;5.54;100.00
82413;BME280;72056;51.980;15.436;2024-01-27T02:18:16;101569.25;;;5.66;100.00
82413;BME280;72056;51.980;15.436;2024-01-27T02:20:42;101564.69;;;5.53;100.00
82413;BME280;72056;51.980;15.436;2024-01-27T02:23:09;101558.81;;;5.60;100.00
82413;BME280;72056;51.980;15.436;2024-01-27T02:25:36;101575.38;;;5.70;100.00
82413;BME280;72056;51.980;15.436;2024-01-27T02:28:04;101583.59;;;5.53;100.00
82413;BME280;72056;51.980;15.436;2024-01-27T02:30:29;101581.56;;;5.56;100.00
82413;BME280;72056;51.980;15.436;2024-01-27T02:32:57;101571.28;;;5.63;100.00
82413;BME280;72056;51.980;15.436;2024-01-27T02:35:24;101585.25;;;5.40;100.00
82413;BME280;72056;51.980;15.436;2024-01-27T02:37:51;101578.28;;;5.36;100.00
82413;BME280;72056;51.980;15.436;2024-01-27T02:40:18;101597.97;;;5.53;100.00
82413;BME280;72056;51.980;15.436;2024-01-27T02:42:45;101588.72;;;5.57;100.00
82413;BME280;72056;51.980;15.436;2024-01-27T02:45:12;101586.63;;;5.62;100.00
82413;BME280;72056;51.980;15.436;2024-01-27T02:47:39;101593.50;;;5.68;100.00
82413;BME280;72056;51.980;15.436;2024-01-27T02:50:05;101594.28;;;5.70;100.00
82413;BME280;72056;51.980;15.436;2024-01-27T02:52:34;101594.69;;;5.78;100.00
82413;BME280;72056;51.980;15.436;2024-01-27T02:55:00;101600.66;;;5.53;100.00
82413;BME280;72056;51.980;15.436;2024-01-27T02:57:27;101593.84;;;5.62;100.00
82413;BME280;72056;51.980;15.436;2024-01-27T02:59:53;101607.59;;;5.73;100.00
82413;BME280;72056;51.980;15.436;2024-01-27T03:02:19;101592.97;;;5.77;100.00
82413;BME280;72056;51.980;15.436;2024-01-27T03:04:46;101597.34;;;5.95;100.00
82413;BME280;72056;51.980;15.436;2024-01-27T03:07:12;101581.63;;;5.86;100.00
82413;BME280;72056;51.980;15.436;2024-01-27T03:09:39;101567.66;;;5.78;100.00
82413;BME280;72056;51.980;15.436;2024-01-27T03:12:06;101593.06;;;5.91;100.00
82413;BME280;72056;51.980;15.436;2024-01-27T03:14:34;101593.94;;;5.76;100.00
82413;BME280;72056;51.980;15.436;2024-01-27T03:17:01;101622.44;;;5.66;100.00
82413;BME280;72056;51.980;15.436;2024-01-27T03:19:27;101575.28;;;5.71;100.00
82413;BME280;72056;51.980;15.436;2024-01-27T03:21:54;101608.63;;;5.86;100.00
82413;BME280;72056;51.980;15.436;2024-01-27T03:24:21;101606.81;;;5.87;100.00
82413;BME280;72056;51.980;15.436;2024-01-27T03:26:48;101623.81;;;5.73;100.00
82413;BME280;72056;51.980;15.436;2024-01-27T03:29:16;101623.28;;;5.66;100.00
82413;BME280;72056;51.980;15.436;2024-01-27T03:31:43;101631.06;;;5.57;100.00
82413;BME280;72056;51.980;15.436;2024-01-27T03:34:10;101630.72;;;5.63;100.00
82413;BME280;72056;51.980;15.436;2024-01-27T03:36:37;101625.66;;;5.57;100.00
82413;BME280;72056;51.980;15.436;2024-01-27T03:39:04;101641.88;;;5.41;100.00
82413;BME280;72056;51.980;15.436;2024-01-27T03:41:33;101654.31;;;5.44;100.00
82413;BME280;72056;51.980;15.436;2024-01-27T03:44:00;101626.94;;;5.50;100.00
82413;BME280;72056;51.980;15.436;2024-01-27T03:46:27;101643.09;;;5.51;100.00
82413;BME280;72056;51.980;15.436;2024-01-27T03:48:54;101647.88;;;5.46;100.00
82413;BME280;72056;51.980;15.436;2024-01-27T03:51:25;101644.63;;;5.55;100.00
82413;BME280;72056;51.980;15.436;2024-01-27T03:53:51;101646.84;;;5.64;100.00
82413;BME280;72056;51.980;15.436;2024-01-27T03:56:18;101642.09;;;5.37;100.00
82413;BME280;72056;51.980;15.436;2024-01-27T03:58:45;101649.25;;;5.38;100.00
82413;BME280;72056;51.980;15.436;2024-01-27T04:01:14;101646.66;;;5.36;100.00
82413;BME280;72056;51.980;15.436;2024-01-27T04:03:41;101639.75;;;5.30;100.00
82413;BME280;72056;51.980;15.436;2024-01-27T04:06:08;101647.00;;;5.30;100.00
82413;BME280;72056;51.980;15.436;2024-01-27T04:08:34;101635.66;;;5.23;100.00
82413;BME280;72056;51.980;15.436;2024-01-27T04:11:01;101633.31;;;5.33;100.00
82413;BME280;72056;51.980;15.436;2024-01-27T04:13:29;101665.97;;;5.28;100.00
82413;BME280;72056;51.980;15.436;2024-01-27T04:15:56;101664.28;;;5.26;100.00
82413;BME280;72056;51.980;15.436;2024-01-27T04:18:25;101651.53;;;5.45;100.00
82413;BME280;72056;51.980;15.436;2024-01-27T04:20:52;101664.47;;;5.23;100.00
82413;BME280;72056;51.980;15.436;2024-01-27T04:23:18;101677.78;;;5.26;100.00
82413;BME280;72056;51.980;15.436;2024-01-27T04:25:44;101681.75;;;5.36;100.00
82413;BME280;72056;51.980;15.436;2024-01-27T04:28:11;101645.88;;;5.01;100.00
82413;BME280;72056;51.980;15.436;2024-01-27T04:30:41;101665.91;;;5.30;100.00
82413;BME280;72056;51.980;15.436;2024-01-27T04:33:11;101660.22;;;5.34;100.00
82413;BME280;72056;51.980;15.436;2024-01-27T04:35:37;101672.09;;;5.48;100.00
82413;BME280;72056;51.980;15.436;2024-01-27T04:38:04;101678.88;;;5.39;100.00
82413;BME280;72056;51.980;15.436;2024-01-27T04:40:30;101648.81;;;5.29;100.00
82413;BME280;72056;51.980;15.436;2024-01-27T04:42:57;101665.28;;;5.41;100.00
82413;BME280;72056;51.980;15.436;2024-01-27T04:45:24;101664.38;;;5.24;100.00
82413;BME280;72056;51.980;15.436;2024-01-27T04:47:51;101672.56;;;5.23;100.00
82413;BME280;72056;51.980;15.436;2024-01-27T04:50:20;101682.78;;;5.49;100.00
82413;BME280;72056;51.980;15.436;2024-01-27T04:52:46;101676.97;;;5.41;100.00
82413;BME280;72056;51.980;15.436;2024-01-27T04:55:13;101678.34;;;5.48;100.00
82413;BME280;72056;51.980;15.436;2024-01-27T04:57:40;101681.84;;;5.50;100.00
82413;BME280;72056;51.980;15.436;2024-01-27T05:00:07;101691.75;;;5.50;100.00
82413;BME280;72056;51.980;15.436;2024-01-27T05:02:40;101699.25;;;5.60;100.00
82413;BME280;72056;51.980;15.436;2024-01-27T05:05:09;101702.38;;;5.37;100.00
82413;BME280;72056;51.980;15.436;2024-01-27T05:07:36;101696.09;;;5.37;100.00
82413;BME280;72056;51.980;15.436;2024-01-27T05:10:03;101725.09;;;5.66;100.00
82413;BME280;72056;51.980;15.436;2024-01-27T05:12:30;101716.81;;;5.69;100.00
82413;BME280;72056;51.980;15.436;2024-01-27T05:14:57;101687.44;;;5.63;100.00
82413;BME280;72056;51.980;15.436;2024-01-27T05:17:24;101707.56;;;5.57;100.00
82413;BME280;72056;51.980;15.436;2024-01-27T05:19:51;101724.63;;;5.58;100.00
82413;BME280;72056;51.980;15.436;2024-01-27T05:22:18;101720.88;;;5.60;100.00
82413;BME280;72056;51.980;15.436;2024-01-27T05:24:48;101724.38;;;5.78;100.00
82413;BME280;72056;51.980;15.436;2024-01-27T05:27:15;101714.63;;;5.60;100.00
82413;BME280;72056;51.980;15.436;2024-01-27T05:29:41;101707.44;;;5.43;100.00
82413;BME280;72056;51.980;15.436;2024-01-27T05:32:08;101731.00;;;5.57;100.00
82413;BME280;72056;51.980;15.436;2024-01-27T05:34:35;101712.88;;;5.59;100.00
82413;BME280;72056;51.980;15.436;2024-01-27T05:37:02;101720.94;;;5.43;100.00
82413;BME280;72056;51.980;15.436;2024-01-27T05:39:29;101717.63;;;5.38;100.00
82413;BME280;72056;51.980;15.436;2024-01-27T05:41:55;101696.81;;;5.40;100.00
82413;BME280;72056;51.980;15.436;2024-01-27T05:44:22;101721.78;;;5.28;100.00
82413;BME280;72056;51.980;15.436;2024-01-27T05:46:48;101730.84;;;5.43;100.00
82413;BME280;72056;51.980;15.436;2024-01-27T05:49:15;101732.66;;;5.26;100.00
82413;BME280;72056;51.980;15.436;2024-01-27T05:51:42;101732.19;;;5.36;100.00
82413;BME280;72056;51.980;15.436;2024-01-27T05:54:09;101740.84;;;5.25;100.00
82413;BME280;72056;51.980;15.436;2024-01-27T05:56:39;101729.84;;;5.12;100.00
82413;BME280;72056;51.980;15.436;2024-01-27T05:59:07;101732.53;;;5.12;100.00
82413;BME280;72056;51.980;15.436;2024-01-27T06:01:33;101737.09;;;5.27;100.00
82413;BME280;72056;51.980;15.436;2024-01-27T06:04:01;101753.44;;;5.24;100.00
82413;BME280;72056;51.980;15.436;2024-01-27T06:06:29;101749.25;;;5.36;100.00
82413;BME280;72056;51.980;15.436;2024-01-27T06:08:59;101764.25;;;5.42;100.00
82413;BME280;72056;51.980;15.436;2024-01-27T06:11:26;101763.59;;;5.37;100.00
82413;BME280;72056;51.980;15.436;2024-01-27T06:13:53;101772.25;;;5.43;100.00
82413;BME280;72056;51.980;15.436;2024-01-27T06:16:19;101763.41;;;5.57;100.00
82413;BME280;72056;51.980;15.436;2024-01-27T06:18:46;101781.72;;;5.67;100.00
82413;BME280;72056;51.980;15.436;2024-01-27T06:21:14;101773.53;;;5.69;100.00
82413;BME280;72056;51.980;15.436;2024-01-27T06:23:40;101779.81;;;5.69;100.00
82413;BME280;72056;51.980;15.436;2024-01-27T06:26:08;101777.53;;;5.62;100.00
82413;BME280;72056;51.980;15.436;2024-01-27T06:28:35;101781.09;;;5.62;100.00
82413;BME280;72056;51.980;15.436;2024-01-27T06:31:03;101773.13;;;5.44;100.00
82413;BME280;72056;51.980;15.436;2024-01-27T06:33:31;101787.56;;;5.43;100.00
82413;BME280;72056;51.980;15.436;2024-01-27T06:35:58;101773.19;;;5.59;100.00
82413;BME280;72056;51.980;15.436;2024-01-27T06:38:26;101800.34;;;5.72;100.00
82413;BME280;72056;51.980;15.436;2024-01-27T06:40:53;101789.47;;;5.73;100.00
82413;BME280;72056;51.980;15.436;2024-01-27T06:43:22;101783.94;;;5.77;100.00
82413;BME280;72056;51.980;15.436;2024-01-27T06:45:50;101785.03;;;5.40;100.00
82413;BME280;72056;51.980;15.436;2024-01-27T06:48:16;101786.09;;;5.70;100.00
82413;BME280;72056;51.980;15.436;2024-01-27T06:50:43;101807.69;;;5.70;100.00
82413;BME280;72056;51.980;15.436;2024-01-27T06:53:10;101806.81;;;5.69;100.00
82413;BME280;72056;51.980;15.436;2024-01-27T06:55:37;101819.38;;;5.70;100.00
82413;BME280;72056;51.980;15.436;2024-01-27T06:58:04;101819.91;;;5.77;100.00
82413;BME280;72056;51.980;15.436;2024-01-27T07:00:31;101811.00;;;5.75;100.00
82413;BME280;72056;51.980;15.436;2024-01-27T07:02:58;101794.34;;;5.67;100.00
82413;BME280;72056;51.980;15.436;2024-01-27T07:05:25;101816.94;;;5.49;100.00
82413;BME280;72056;51.980;15.436;2024-01-27T07:07:53;101804.09;;;5.54;100.00
82413;BME280;72056;51.980;15.436;2024-01-27T07:10:20;101806.41;;;5.77;100.00
82413;BME280;72056;51.980;15.436;2024-01-27T07:12:48;101808.13;;;5.78;100.00
82413;BME280;72056;51.980;15.436;2024-01-27T07:15:21;101824.94;;;5.67;100.00
82413;BME280;72056;51.980;15.436;2024-01-27T07:17:49;101811.34;;;5.36;100.00
82413;BME280;72056;51.980;15.436;2024-01-27T07:20:16;101827.38;;;5.72;100.00
82413;BME280;72056;51.980;15.436;2024-01-27T07:22:47;101786.00;;;5.39;100.00
82413;BME280;72056;51.980;15.436;2024-01-27T07:25:13;101802.50;;;5.50;100.00
82413;BME280;72056;51.980;15.436;2024-01-27T07:27:41;101840.22;;;5.51;100.00
82413;BME280;72056;51.980;15.436;2024-01-27T07:30:08;101839.03;;;5.57;100.00
82413;BME280;72056;51.980;15.436;2024-01-27T07:32:37;101852.06;;;5.66;100.00
82413;BME280;72056;51.980;15.436;2024-01-27T07:35:08;101857.69;;;5.61;100.00
82413;BME280;72056;51.980;15.436;2024-01-27T07:37:36;101859.47;;;5.78;100.00
82413;BME280;72056;51.980;15.436;2024-01-27T07:40:04;101836.81;;;5.81;100.00
82413;BME280;72056;51.980;15.436;2024-01-27T07:42:31;101869.81;;;5.87;100.00
82413;BME280;72056;51.980;15.436;2024-01-27T07:45:00;101864.34;;;5.71;100.00
82413;BME280;72056;51.980;15.436;2024-01-27T07:47:27;101872.75;;;5.83;100.00
82413;BME280;72056;51.980;15.436;2024-01-27T07:49:54;101865.84;;;5.77;100.00
82413;BME280;72056;51.980;15.436;2024-01-27T07:52:20;101878.84;;;5.86;100.00
82413;BME280;72056;51.980;15.436;2024-01-27T07:54:47;101872.47;;;6.04;100.00
82413;BME280;72056;51.980;15.436;2024-01-27T07:57:15;101878.69;;;6.38;100.00
82413;BME280;72056;51.980;15.436;2024-01-27T07:59:43;101891.06;;;6.10;100.00
82413;BME280;72056;51.980;15.436;2024-01-27T08:02:10;101902.78;;;6.27;100.00
82413;BME280;72056;51.980;15.436;2024-01-27T08:04:38;101887.06;;;6.18;100.00
82413;BME280;72056;51.980;15.436;2024-01-27T08:07:04;101885.84;;;6.23;100.00
82413;BME280;72056;51.980;15.436;2024-01-27T08:09:36;101898.84;;;6.32;100.00
82413;BME280;72056;51.980;15.436;2024-01-27T08:12:05;101898.88;;;6.48;100.00
82413;BME280;72056;51.980;15.436;2024-01-27T08:14:31;101895.22;;;6.49;100.00
82413;BME280;72056;51.980;15.436;2024-01-27T08:16:59;101880.44;;;6.39;100.00
82413;BME280;72056;51.980;15.436;2024-01-27T08:19:25;101903.34;;;6.49;100.00
82413;BME280;72056;51.980;15.436;2024-01-27T08:21:52;101887.78;;;6.68;100.00
82413;BME280;72056;51.980;15.436;2024-01-27T08:24:18;101898.88;;;6.79;100.00
82413;BME280;72056;51.980;15.436;2024-01-27T08:26:45;101894.50;;;6.92;100.00
82413;BME280;72056;51.980;15.436;2024-01-27T08:29:14;101894.19;;;6.67;100.00
82413;BME280;72056;51.980;15.436;2024-01-27T08:31:40;101892.75;;;6.44;100.00
82413;BME280;72056;51.980;15.436;2024-01-27T08:34:06;101909.97;;;6.90;100.00
82413;BME280;72056;51.980;15.436;2024-01-27T08:36:34;101888.75;;;6.51;100.00
82413;BME280;72056;51.980;15.436;2024-01-27T08:39:01;101896.88;;;6.51;100.00
82413;BME280;72056;51.980;15.436;2024-01-27T08:41:29;101891.91;;;6.60;100.00
82413;BME280;72056;51.980;15.436;2024-01-27T08:43:56;101916.84;;;6.80;100.00
82413;BME280;72056;51.980;15.436;2024-01-27T08:46:23;101910.13;;;6.56;100.00
82413;BME280;72056;51.980;15.436;2024-01-27T08:48:50;101903.41;;;6.63;100.00
82413;BME280;72056;51.980;15.436;2024-01-27T08:51:17;101890.63;;;7.12;100.00
82413;BME280;72056;51.980;15.436;2024-01-27T08:53:44;101919.25;;;7.16;100.00
82413;BME280;72056;51.980;15.436;2024-01-27T08:56:16;101927.34;;;7.02;100.00
82413;BME280;72056;51.980;15.436;2024-01-27T08:58:46;101916.47;;;8.06;100.00
82413;BME280;72056;51.980;15.436;2024-01-27T09:01:16;101901.22;;;8.33;100.00
82413;BME280;72056;51.980;15.436;2024-01-27T09:03:43;101910.59;;;8.28;100.00
82413;BME280;72056;51.980;15.436;2024-01-27T09:06:10;101936.63;;;8.02;100.00
82413;BME280;72056;51.980;15.436;2024-01-27T09:08:36;101935.31;;;8.51;100.00
82413;BME280;72056;51.980;15.436;2024-01-27T09:11:03;101939.75;;;9.34;95.73
82413;BME280;72056;51.980;15.436;2024-01-27T09:13:29;101927.09;;;9.21;95.30
82413;BME280;72056;51.980;15.436;2024-01-27T09:15:58;101956.13;;;9.60;92.94
82413;BME280;72056;51.980;15.436;2024-01-27T09:18:26;101949.91;;;9.45;92.83
82413;BME280;72056;51.980;15.436;2024-01-27T09:20:54;101961.00;;;9.94;86.08
82413;BME280;72056;51.980;15.436;2024-01-27T09:23:20;101951.63;;;9.98;87.96
82413;BME280;72056;51.980;15.436;2024-01-27T09:25:47;101962.25;;;9.36;88.62
82413;BME280;72056;51.980;15.436;2024-01-27T09:28:14;101965.78;;;9.24;94.32
82413;BME280;72056;51.980;15.436;2024-01-27T09:30:42;101974.09;;;9.09;95.79
82413;BME280;72056;51.980;15.436;2024-01-27T09:33:09;101988.03;;;8.47;100.00
82413;BME280;72056;51.980;15.436;2024-01-27T09:35:35;101972.84;;;8.45;100.00
82413;BME280;72056;51.980;15.436;2024-01-27T09:38:03;101978.16;;;8.32;100.00
82413;BME280;72056;51.980;15.436;2024-01-27T09:40:30;101985.81;;;8.54;100.00
82413;BME280;72056;51.980;15.436;2024-01-27T09:42:59;101981.13;;;8.70;100.00
82413;BME280;72056;51.980;15.436;2024-01-27T09:45:26;101985.69;;;8.27;100.00
82413;BME280;72056;51.980;15.436;2024-01-27T09:47:56;101996.00;;;7.92;100.00
82413;BME280;72056;51.980;15.436;2024-01-27T09:50:45;101971.72;;;8.19;100.00
82413;BME280;72056;51.980;15.436;2024-01-27T09:53:11;101990.84;;;8.74;100.00
82413;BME280;72056;51.980;15.436;2024-01-27T09:55:38;101980.38;;;8.68;100.00
82413;BME280;72056;51.980;15.436;2024-01-27T09:58:05;101998.66;;;8.22;100.00
82413;BME280;72056;51.980;15.436;2024-01-27T10:00:33;101990.00;;;8.01;100.00
82413;BME280;72056;51.980;15.436;2024-01-27T10:03:04;101991.72;;;8.75;100.00
82413;BME280;72056;51.980;15.436;2024-01-27T10:05:33;101986.59;;;8.56;100.00
82413;BME280;72056;51.980;15.436;2024-01-27T10:08:01;102008.34;;;8.26;100.00
82413;BME280;72056;51.980;15.436;2024-01-27T10:10:28;102005.78;;;8.39;100.00
82413;BME280;72056;51.980;15.436;2024-01-27T10:12:55;102001.78;;;8.73;100.00
82413;BME280;72056;51.980;15.436;2024-01-27T10:15:26;102015.75;;;8.52;100.00
82413;BME280;72056;51.980;15.436;2024-01-27T10:18:03;102024.56;;;8.84;98.20
82413;BME280;72056;51.980;15.436;2024-01-27T10:20:30;102001.88;;;8.71;98.99
82413;BME280;72056;51.980;15.436;2024-01-27T10:22:57;102013.84;;;8.69;98.73
82413;BME280;72056;51.980;15.436;2024-01-27T10:25:25;102027.78;;;8.77;100.00
82413;BME280;72056;51.980;15.436;2024-01-27T10:27:56;102008.09;;;9.28;95.69
82413;BME280;72056;51.980;15.436;2024-01-27T10:30:23;102023.66;;;9.12;93.88
82413;BME280;72056;51.980;15.436;2024-01-27T10:32:56;102027.00;;;8.75;96.44
82413;BME280;72056;51.980;15.436;2024-01-27T10:35:24;102043.72;;;9.24;95.06
82413;BME280;72056;51.980;15.436;2024-01-27T10:37:53;102030.75;;;9.41;92.70
82413;BME280;72056;51.980;15.436;2024-01-27T10:40:20;102037.63;;;9.06;94.38
82413;BME280;72056;51.980;15.436;2024-01-27T10:42:48;102045.50;;;8.82;97.27
82413;BME280;72056;51.980;15.436;2024-01-27T10:45:19;102040.03;;;9.25;95.41
82413;BME280;72056;51.980;15.436;2024-01-27T10:47:45;102036.44;;;9.78;89.81
82413;BME280;72056;51.980;15.436;2024-01-27T10:50:14;102044.00;;;9.60;89.72
82413;BME280;72056;51.980;15.436;2024-01-27T10:52:41;102060.09;;;9.90;87.78
82413;BME280;72056;51.980;15.436;2024-01-27T10:55:10;102036.19;;;9.41;89.21
82413;BME280;72056;51.980;15.436;2024-01-27T10:57:39;102059.13;;;9.37;88.10
82413;BME280;72056;51.980;15.436;2024-01-27T11:00:08;102064.78;;;10.91;82.69
82413;BME280;72056;51.980;15.436;2024-01-27T11:02:35;102072.66;;;10.83;78.28
82413;BME280;72056;51.980;15.436;2024-01-27T11:05:05;102070.28;;;10.53;79.01
82413;BME280;72056;51.980;15.436;2024-01-27T11:07:34;102067.50;;;12.24;71.09
82413;BME280;72056;51.980;15.436;2024-01-27T11:10:01;102090.88;;;11.80;69.97
82413;BME280;72056;51.980;15.436;2024-01-27T11:12:29;102084.72;;;11.17;71.38
82413;BME280;72056;51.980;15.436;2024-01-27T11:14:56;102085.59;;;11.04;73.50
82413;BME280;72056;51.980;15.436;2024-01-27T11:17:24;102074.94;;;10.76;74.45
82413;BME280;72056;51.980;15.436;2024-01-27T11:19:52;102080.25;;;10.27;76.80
82413;BME280;72056;51.980;15.436;2024-01-27T11:22:25;102101.44;;;9.82;83.24
82413;BME280;72056;51.980;15.436;2024-01-27T11:25:14;102099.69;;;9.81;83.21
82413;BME280;72056;51.980;15.436;2024-01-27T11:27:42;102101.88;;;9.89;85.22
82413;BME280;72056;51.980;15.436;2024-01-27T11:30:31;102095.47;;;9.63;87.30
82413;BME280;72056;51.980;15.436;2024-01-27T11:33:01;102093.63;;;9.23;90.12
82413;BME280;72056;51.980;15.436;2024-01-27T11:35:29;102082.59;;;9.53;87.18
82413;BME280;72056;51.980;15.436;2024-01-27T11:37:57;102104.69;;;9.06;90.48
82413;BME280;72056;51.980;15.436;2024-01-27T11:40:24;102095.81;;;9.30;90.99
82413;BME280;72056;51.980;15.436;2024-01-27T11:43:00;102093.25;;;9.56;90.15
82413;BME280;72056;51.980;15.436;2024-01-27T11:45:28;102108.84;;;9.66;89.40
82413;BME280;72056;51.980;15.436;2024-01-27T11:48:00;102103.75;;;9.89;88.44
82413;BME280;72056;51.980;15.436;2024-01-27T11:50:27;102104.91;;;9.84;88.99
82413;BME280;72056;51.980;15.436;2024-01-27T11:52:54;102117.38;;;10.01;85.84
82413;BME280;72056;51.980;15.436;2024-01-27T11:55:21;102121.66;;;10.45;84.60
82413;BME280;72056;51.980;15.436;2024-01-27T11:57:47;102115.00;;;10.49;83.29
82413;BME280;72056;51.980;15.436;2024-01-27T12:00:14;102115.41;;;10.03;84.97
82413;BME280;72056;51.980;15.436;2024-01-27T12:02:41;102112.72;;;10.30;84.39
82413;BME280;72056;51.980;15.436;2024-01-27T12:05:09;102113.44;;;10.19;84.78
82413;BME280;72056;51.980;15.436;2024-01-27T12:07:35;102122.34;;;9.68;86.29
82413;BME280;72056;51.980;15.436;2024-01-27T12:10:04;102127.84;;;10.07;85.23
82413;BME280;72056;51.980;15.436;2024-01-27T12:12:31;102136.34;;;9.62;88.76
82413;BME280;72056;51.980;15.436;2024-01-27T12:14:59;102147.50;;;9.98;88.63
82413;BME280;72056;51.980;15.436;2024-01-27T12:17:27;102150.47;;;9.81;87.70
82413;BME280;72056;51.980;15.436;2024-01-27T12:19:54;102157.75;;;9.39;88.81
82413;BME280;72056;51.980;15.436;2024-01-27T12:22:25;102160.47;;;9.39;91.92
82413;BME280;72056;51.980;15.436;2024-01-27T12:24:52;102157.94;;;9.36;92.25
82413;BME280;72056;51.980;15.436;2024-01-27T12:27:18;102174.31;;;9.63;91.82
82413;BME280;72056;51.980;15.436;2024-01-27T12:29:48;102164.53;;;9.18;94.78
82413;BME280;72056;51.980;15.436;2024-01-27T12:32:16;102172.69;;;9.47;93.62
82413;BME280;72056;51.980;15.436;2024-01-27T12:34:43;102182.81;;;9.16;95.85
82413;BME280;72056;51.980;15.436;2024-01-27T12:37:13;102182.13;;;9.27;95.27
82413;BME280;72056;51.980;15.436;2024-01-27T12:39:44;102185.59;;;9.43;95.17
82413;BME280;72056;51.980;15.436;2024-01-27T12:42:27;102201.50;;;8.92;96.98